Time;durP1;ratioP1;P1;durP2;ratioP2;P2;SDS_P1;SDS_P2;PMS_P1;PMS_P2;Temp;Humidity;BMP_temperature;BMP_pressure;BME280_temperature;BME280_humidity;BME280_pressure;Samples;Min_cycle;Max_cycle;Signal;HPM_P1;HPM_P2
2023/03/05 00:01:40;;;;;;;28.13;11.90;;;8.20;89.10;;;;;;4945694;28;20664;-77
2023/03/05 00:04:12;;;;;;;26.13;12.23;;;8.10;89.10;;;;;;4951395;28;20196;-76
2023/03/05 00:06:40;;;;;;;28.33;11.93;;;8.10;89.20;;;;;;4954302;28;20455;-76
2023/03/05 00:09:09;;;;;;;32.40;12.77;;;8.10;89.30;;;;;;4957404;28;20195;-77
2023/03/05 00:11:38;;;;;;;26.83;11.73;;;8.00;89.40;;;;;;4967783;28;20260;-77
2023/03/05 00:14:06;;;;;;;35.20;12.13;;;8.00;89.40;;;;;;4957013;28;20225;-77
2023/03/05 00:16:35;;;;;;;30.60;11.43;;;8.00;89.30;;;;;;4960527;28;20198;-76
2023/03/05 00:19:04;;;;;;;33.87;12.53;;;8.00;89.40;;;;;;4959299;28;20210;-77
2023/03/05 00:21:35;;;;;;;25.43;11.43;;;8.00;89.30;;;;;;4956243;28;20609;-78
2023/03/05 00:24:06;;;;;;;28.83;11.90;;;8.00;89.10;;;;;;4963151;28;20223;-77
2023/03/05 00:26:37;;;;;;;27.40;12.83;;;8.00;89.10;;;;;;4968919;28;20198;-77
2023/03/05 00:29:07;;;;;;;28.30;12.40;;;8.00;89.00;;;;;;4955624;28;20636;-77
2023/03/05 00:31:37;;;;;;;31.37;12.83;;;8.00;89.00;;;;;;4957920;28;20209;-78
2023/03/05 00:34:08;;;;;;;29.57;11.73;;;8.00;89.10;;;;;;4958724;28;20228;-77
2023/03/05 00:36:42;;;;;;;27.93;12.23;;;8.00;89.10;;;;;;4947473;28;20813;-78
2023/03/05 00:39:10;;;;;;;29.73;12.73;;;7.90;89.20;;;;;;4954744;28;20195;-78
2023/03/05 00:41:39;;;;;;;26.77;11.57;;;7.90;89.10;;;;;;4958984;28;20274;-75
2023/03/05 00:44:07;;;;;;;36.63;12.93;;;7.90;89.20;;;;;;4960342;28;20202;-76
2023/03/05 00:46:36;;;;;;;27.87;12.33;;;7.80;89.40;;;;;;4956733;28;20220;-77
2023/03/05 00:49:06;;;;;;;26.37;12.53;;;7.90;89.60;;;;;;4962499;28;20285;-78
2023/03/05 00:51:34;;;;;;;34.37;13.07;;;7.90;89.60;;;;;;4958635;28;20198;-76
2023/03/05 00:54:03;;;;;;;32.80;13.27;;;7.90;89.70;;;;;;4961938;28;20221;-78
2023/03/05 00:56:31;;;;;;;37.57;13.63;;;7.90;89.70;;;;;;4957861;28;20206;-79
2023/03/05 00:59:00;;;;;;;26.80;12.93;;;7.90;89.50;;;;;;4963142;28;20233;-76
2023/03/05 01:01:29;;;;;;;33.77;13.33;;;7.90;89.40;;;;;;4957381;28;20236;-76
2023/03/05 01:03:58;;;;;;;37.37;12.73;;;7.90;89.20;;;;;;4957798;28;20671;-75
2023/03/05 01:06:29;;;;;;;30.97;11.67;;;7.80;89.10;;;;;;4954884;28;20200;-76
2023/03/05 01:08:58;;;;;;;31.97;12.73;;;7.80;89.00;;;;;;4958936;28;20200;-75
2023/03/05 01:11:26;;;;;;;30.40;12.20;;;7.80;88.90;;;;;;4955567;28;20247;-77
2023/03/05 01:13:55;;;;;;;26.60;12.50;;;7.80;89.60;;;;;;4963373;28;20286;-76
2023/03/05 01:16:23;;;;;;;36.27;13.87;;;7.80;88.80;;;;;;4951543;28;20209;-76
2023/03/05 01:18:52;;;;;;;34.07;14.30;;;7.80;88.90;;;;;;4954241;28;20201;-75
2023/03/05 01:21:20;;;;;;;36.40;13.67;;;7.80;89.10;;;;;;4962502;28;20734;-76
2023/03/05 01:23:50;;;;;;;32.10;12.43;;;7.80;89.30;;;;;;4959407;28;20208;-76
2023/03/05 01:26:19;;;;;;;29.60;13.30;;;7.80;89.50;;;;;;4953461;28;20212;-75
2023/03/05 01:28:47;;;;;;;31.13;13.10;;;7.80;89.70;;;;;;4963331;28;20206;-76
2023/03/05 01:31:16;;;;;;;37.65;14.52;;;7.70;89.90;;;;;;4939077;29;20449;-75
2023/03/05 01:33:44;;;;;;;38.70;15.53;;;7.70;89.90;;;;;;4957023;28;20312;-77
2023/03/05 01:36:15;;;;;;;35.83;15.53;;;7.70;90.00;;;;;;4956294;28;20210;-76
2023/03/05 01:38:45;;;;;;;35.10;14.70;;;7.70;90.00;;;;;;4955465;28;20199;-77
2023/03/05 01:41:16;;;;;;;37.43;13.77;;;7.70;89.90;;;;;;4949613;28;20855;-77
2023/03/05 01:43:45;;;;;;;34.37;13.83;;;7.70;89.70;;;;;;4951834;28;20202;-77
2023/03/05 01:46:35;;;;;;;31.40;13.67;;;7.70;89.80;;;;;;4948687;28;20311;-76
2023/03/05 01:49:15;;;;;;;38.30;14.43;;;7.80;89.70;;;;;;4960168;28;20201;-76
2023/03/05 01:51:50;;;;;;;35.67;15.17;;;7.70;89.60;;;;;;4954340;28;20190;-77
2023/03/05 01:54:21;;;;;;;33.60;13.40;;;7.60;89.90;;;;;;4956734;28;20221;-76
2023/03/05 01:56:54;;;;;;;37.00;14.27;;;7.70;89.70;;;;;;4951367;28;20197;-76
2023/03/05 01:59:24;;;;;;;35.77;12.73;;;7.60;89.60;;;;;;4945287;28;20202;-78
2023/03/05 02:01:56;;;;;;;30.27;12.80;;;7.60;89.40;;;;;;4940310;28;20576;-78
2023/03/05 02:04:32;;;;;;;31.07;13.13;;;7.60;89.40;;;;;;4955272;28;20202;-75
2023/03/05 02:07:00;;;;;;;31.73;13.43;;;7.60;89.20;;;;;;4950515;28;20204;-76
2023/03/05 02:09:29;;;;;;;32.20;14.07;;;7.60;89.10;;;;;;4949104;28;20203;-75
2023/03/05 02:11:59;;;;;;;34.47;14.00;;;7.60;89.00;;;;;;4951530;28;20263;-76
2023/03/05 02:14:28;;;;;;;36.77;13.93;;;7.60;89.00;;;;;;4954118;28;20287;-75
2023/03/05 02:16:56;;;;;;;39.67;14.37;;;7.60;88.90;;;;;;4949780;28;20201;-76
2023/03/05 02:19:25;;;;;;;43.63;14.87;;;7.60;88.90;;;;;;4949007;28;20196;-76
2023/03/05 02:21:55;;;;;;;38.13;13.77;;;7.50;88.70;;;;;;4958328;28;20213;-76
2023/03/05 02:24:36;;;;;;;37.07;14.50;;;7.50;88.80;;;;;;4955580;28;20647;-75
2023/03/05 02:27:05;;;;;;;33.17;15.50;;;7.50;88.80;;;;;;4950915;28;20574;-76
2023/03/05 02:29:37;;;;;;;29.90;14.60;;;7.50;88.70;;;;;;4946678;28;20571;-75
2023/03/05 02:32:07;;;;;;;35.37;14.00;;;7.50;88.80;;;;;;4947480;28;20200;-78
2023/03/05 02:34:36;;;;;;;34.00;14.73;;;7.50;88.90;;;;;;4940920;28;20226;-76
2023/03/05 02:37:08;;;;;;;42.37;15.47;;;7.50;88.80;;;;;;4949091;28;20206;-77
2023/03/05 02:39:38;;;;;;;38.53;14.47;;;7.50;88.80;;;;;;4955461;28;20190;-77
2023/03/05 02:42:07;;;;;;;34.60;13.83;;;7.40;88.70;;;;;;4946409;28;20544;-76
2023/03/05 02:44:35;;;;;;;38.87;15.37;;;7.40;88.70;;;;;;4953685;28;20529;-76
2023/03/05 02:47:05;;;;;;;32.60;14.47;;;7.40;88.80;;;;;;4945768;28;20580;-77
2023/03/05 02:49:34;;;;;;;33.77;14.37;;;7.40;88.70;;;;;;4947573;28;20208;-77
2023/03/05 02:52:02;;;;;;;35.70;14.50;;;7.40;88.90;;;;;;4947716;28;20212;-77
2023/03/05 02:54:32;;;;;;;35.90;14.37;;;7.40;88.80;;;;;;4935706;28;20256;-77
2023/03/05 02:57:00;;;;;;;36.97;14.80;;;7.40;88.80;;;;;;4944948;28;20207;-78
2023/03/05 02:59:28;;;;;;;38.53;13.40;;;7.40;88.80;;;;;;4943569;28;20199;-76
2023/03/05 03:01:57;;;;;;;39.87;14.37;;;7.40;89.60;;;;;;4948763;28;20231;-77
2023/03/05 03:04:25;;;;;;;28.37;13.23;;;7.40;88.80;;;;;;4953656;28;20208;-75
2023/03/05 03:06:54;;;;;;;32.77;13.57;;;7.40;88.70;;;;;;4957405;28;20209;-78
2023/03/05 03:09:22;;;;;;;39.07;15.93;;;7.40;88.60;;;;;;4947106;28;20200;-78
2023/03/05 03:11:52;;;;;;;43.20;14.13;;;7.40;88.50;;;;;;4945438;28;20230;-77
2023/03/05 03:14:21;;;;;;;40.50;15.53;;;7.40;88.40;;;;;;4950629;28;20258;-76
2023/03/05 03:16:50;;;;;;;34.07;13.60;;;7.50;88.40;;;;;;4951019;28;20199;-76
2023/03/05 03:19:18;;;;;;;41.42;16.38;;;7.50;88.20;;;;;;4953241;28;20455;-76
2023/03/05 03:21:48;;;;;;;40.73;15.13;;;7.50;88.50;;;;;;4954621;28;20618;-77
2023/03/05 03:24:17;;;;;;;36.90;14.67;;;7.50;88.40;;;;;;4953061;28;20193;-78
2023/03/05 03:26:45;;;;;;;41.43;16.80;;;7.50;88.10;;;;;;4952126;28;20746;-77
2023/03/05 03:29:15;;;;;;;36.57;15.47;;;7.50;88.00;;;;;;4952741;28;20212;-77
2023/03/05 03:31:44;;;;;;;39.33;14.90;;;7.40;87.80;;;;;;4958631;28;21438;-76
2023/03/05 03:34:13;;;;;;;37.33;14.13;;;7.50;87.90;;;;;;4955130;28;20205;-77
2023/03/05 03:36:42;;;;;;;37.47;14.77;;;7.40;87.80;;;;;;4948116;28;20740;-78
2023/03/05 03:39:10;;;;;;;33.63;14.63;;;7.40;87.70;;;;;;4950665;28;20208;-77
2023/03/05 03:41:42;;;;;;;41.13;14.63;;;7.40;87.70;;;;;;4960931;28;20201;-77
2023/03/05 03:44:11;;;;;;;46.07;16.70;;;7.40;87.50;;;;;;4952192;28;20195;-76
2023/03/05 03:46:43;;;;;;;43.33;16.03;;;7.40;87.70;;;;;;4953099;28;20239;-77
2023/03/05 03:49:16;;;;;;;39.80;15.23;;;7.40;87.70;;;;;;4951945;28;20205;-77
2023/03/05 03:51:44;;;;;;;38.10;14.03;;;7.30;87.80;;;;;;4955720;28;20204;-77
2023/03/05 03:54:14;;;;;;;48.00;17.87;;;7.30;87.80;;;;;;4948437;28;20256;-78
2023/03/05 03:56:42;;;;;;;40.00;16.17;;;7.30;87.90;;;;;;4943958;28;20209;-77
2023/03/05 03:59:11;;;;;;;36.83;15.43;;;7.30;88.00;;;;;;4943708;28;20331;-76
2023/03/05 04:01:41;;;;;;;43.50;16.93;;;7.30;87.90;;;;;;4942222;28;20203;-77
2023/03/05 04:04:11;;;;;;;37.27;15.23;;;7.40;88.00;;;;;;4955068;28;20237;-77
2023/03/05 04:06:40;;;;;;;39.63;16.80;;;7.40;88.10;;;;;;4952366;28;20657;-77
2023/03/05 04:09:08;;;;;;;36.93;14.13;;;7.30;88.10;;;;;;4946291;28;20201;-78
2023/03/05 04:11:37;;;;;;;45.73;16.67;;;7.30;88.10;;;;;;4954653;28;20255;-76
2023/03/05 04:14:05;;;;;;;43.60;16.13;;;7.30;88.10;;;;;;4954604;28;20210;-77
2023/03/05 04:16:34;;;;;;;46.13;15.47;;;7.30;88.30;;;;;;4955897;28;20216;-77
2023/03/05 04:19:03;;;;;;;38.97;15.63;;;7.30;88.40;;;;;;4949142;28;20256;-77
2023/03/05 04:21:32;;;;;;;40.87;15.10;;;7.30;88.40;;;;;;4946210;28;20297;-77
2023/03/05 04:24:00;;;;;;;36.80;15.03;;;7.20;88.40;;;;;;4947861;28;20225;-77
2023/03/05 04:26:28;;;;;;;38.37;15.60;;;7.20;88.30;;;;;;4951932;28;20213;-77
2023/03/05 04:28:57;;;;;;;46.27;17.93;;;7.20;88.30;;;;;;4952334;28;20204;-77
2023/03/05 04:31:25;;;;;;;46.10;16.30;;;7.20;88.30;;;;;;4948541;28;20212;-77
2023/03/05 04:33:53;;;;;;;45.40;16.33;;;7.20;88.20;;;;;;4955493;28;20199;-76
2023/03/05 04:36:23;;;;;;;44.63;17.40;;;7.20;88.20;;;;;;4949586;28;20702;-77
2023/03/05 04:38:51;;;;;;;44.77;16.30;;;7.20;88.20;;;;;;4954424;28;20207;-75
2023/03/05 04:41:20;;;;;;;39.13;16.13;;;7.20;88.20;;;;;;4944118;28;20633;-77
2023/03/05 04:43:48;;;;;;;40.37;16.73;;;7.20;88.20;;;;;;4953188;28;20205;-76
2023/03/05 04:46:16;;;;;;;43.57;16.87;;;7.10;88.20;;;;;;4955408;28;20255;-77
2023/03/05 04:48:45;;;;;;;44.37;17.10;;;7.10;88.20;;;;;;4949202;28;20205;-77
2023/03/05 04:51:13;;;;;;;41.50;16.47;;;7.20;88.20;;;;;;4954010;28;20215;-77
2023/03/05 04:53:43;;;;;;;44.73;16.13;;;7.10;88.10;;;;;;4948763;28;20259;-77
2023/03/05 04:56:11;;;;;;;38.90;15.83;;;7.20;88.10;;;;;;4951487;28;20223;-76
2023/03/05 04:58:40;;;;;;;47.60;16.43;;;7.20;88.00;;;;;;4953681;28;20206;-76
2023/03/05 05:01:09;;;;;;;39.27;16.20;;;7.10;87.90;;;;;;4957306;28;20211;-76
2023/03/05 05:03:37;;;;;;;38.90;15.00;;;7.20;88.80;;;;;;4951594;28;20200;-76
2023/03/05 05:06:06;;;;;;;41.03;14.97;;;7.20;88.10;;;;;;4949179;28;20204;-76
2023/03/05 05:08:35;;;;;;;37.77;16.07;;;7.20;88.10;;;;;;4952936;28;20201;-76
2023/03/05 05:11:08;;;;;;;39.73;16.03;;;7.20;88.10;;;;;;4949725;29;20292;-77
2023/03/05 05:13:36;;;;;;;42.47;14.70;;;7.20;88.20;;;;;;4953192;28;20236;-76
2023/03/05 05:16:07;;;;;;;44.97;15.67;;;7.20;88.50;;;;;;4956872;28;20783;-77
2023/03/05 05:18:35;;;;;;;41.73;16.03;;;7.20;88.10;;;;;;4949165;28;20638;-75
2023/03/05 05:21:08;;;;;;;43.23;16.77;;;7.20;88.10;;;;;;4952102;28;20206;-75
2023/03/05 05:23:37;;;;;;;40.67;16.53;;;7.30;88.30;;;;;;4950326;28;20195;-75
2023/03/05 05:26:08;;;;;;;36.70;14.97;;;7.20;88.10;;;;;;4950143;28;20696;-75
2023/03/05 05:28:37;;;;;;;43.40;16.53;;;7.30;88.30;;;;;;4949498;28;20203;-77
2023/03/05 05:31:09;;;;;;;45.10;17.37;;;7.30;88.30;;;;;;4951837;28;20204;-77
2023/03/05 05:33:39;;;;;;;49.27;16.63;;;7.30;88.30;;;;;;4943830;28;20660;-76
2023/03/05 05:36:13;;;;;;;40.07;16.63;;;7.40;88.30;;;;;;4953778;28;20225;-77
2023/03/05 05:38:42;;;;;;;37.77;15.90;;;7.40;88.30;;;;;;4955280;28;20666;-76
2023/03/05 05:41:14;;;;;;;44.67;17.80;;;7.50;88.50;;;;;;4943144;28;20203;-77
2023/03/05 05:43:42;;;;;;;42.30;17.13;;;7.50;88.60;;;;;;4953718;28;20253;-76
2023/03/05 05:46:13;;;;;;;45.93;18.50;;;7.50;88.50;;;;;;4950746;28;20196;-77
2023/03/05 05:48:42;;;;;;;47.07;18.73;;;7.60;88.70;;;;;;4945745;28;20249;-77
2023/03/05 05:51:13;;;;;;;46.90;19.57;;;7.60;88.80;;;;;;4951831;28;20764;-78
2023/03/05 05:53:42;;;;;;;50.73;19.77;;;7.70;88.70;;;;;;4951601;28;20201;-78
2023/03/05 05:56:13;;;;;;;40.80;17.77;;;7.70;88.60;;;;;;4955716;28;20220;-77
2023/03/05 05:58:42;;;;;;;48.33;18.70;;;7.80;88.60;;;;;;4955374;28;20209;-77
2023/03/05 06:01:15;;;;;;;47.83;17.73;;;7.80;88.70;;;;;;4951191;28;20734;-77
2023/03/05 06:03:44;;;;;;;45.77;17.80;;;7.90;88.70;;;;;;4948591;28;20205;-77
2023/03/05 06:06:14;;;;;;;48.67;18.23;;;7.90;88.70;;;;;;4950652;28;20205;-77
2023/03/05 06:08:42;;;;;;;43.23;17.60;;;8.00;88.70;;;;;;4960731;28;20189;-77
2023/03/05 06:11:12;;;;;;;54.50;19.10;;;8.10;88.70;;;;;;4957741;28;20728;-77
2023/03/05 06:13:41;;;;;;;46.80;18.40;;;8.10;88.70;;;;;;4952519;28;20201;-76
2023/03/05 06:16:12;;;;;;;45.13;17.27;;;8.20;88.70;;;;;;4951453;28;20299;-75
2023/03/05 06:18:41;;;;;;;44.67;17.70;;;8.30;88.90;;;;;;4953058;28;20224;-76
2023/03/05 06:21:12;;;;;;;47.33;18.40;;;8.40;89.10;;;;;;4960462;28;20236;-77
2023/03/05 06:23:41;;;;;;;42.83;18.33;;;8.40;88.80;;;;;;4947215;28;20209;-76
2023/03/05 06:26:13;;;;;;;46.63;15.80;;;8.50;88.80;;;;;;4943901;28;20197;-76
2023/03/05 06:28:42;;;;;;;43.20;17.27;;;8.50;88.60;;;;;;4952175;28;20201;-77
2023/03/05 06:31:12;;;;;;;42.53;17.93;;;8.60;88.60;;;;;;4946776;28;20208;-76
2023/03/05 06:33:41;;;;;;;48.50;19.53;;;8.60;88.30;;;;;;4959765;28;20765;-77
2023/03/05 06:36:11;;;;;;;46.83;18.93;;;8.70;88.10;;;;;;4947678;28;20230;-78
2023/03/05 06:38:39;;;;;;;50.03;19.53;;;8.70;88.20;;;;;;4949973;28;20354;-76
2023/03/05 06:41:10;;;;;;;47.37;19.63;;;8.80;88.20;;;;;;4950508;28;20619;-77
2023/03/05 06:43:42;;;;;;;46.37;20.13;;;8.90;88.20;;;;;;4950718;28;20207;-77
2023/03/05 06:46:13;;;;;;;41.80;18.63;;;8.90;88.20;;;;;;4947744;28;20190;-77
2023/03/05 06:48:42;;;;;;;43.37;18.70;;;9.00;88.20;;;;;;4956330;28;20198;-77
2023/03/05 06:51:15;;;;;;;48.27;19.23;;;9.10;88.30;;;;;;4942458;28;20209;-77
2023/03/05 06:53:44;;;;;;;41.83;18.23;;;9.10;87.90;;;;;;4950132;28;20198;-77
2023/03/05 06:56:15;;;;;;;43.00;16.20;;;9.10;87.50;;;;;;4948099;28;20210;-77
2023/03/05 06:58:46;;;;;;;40.70;16.03;;;9.20;87.50;;;;;;4955162;28;20268;-76
2023/03/05 07:01:16;;;;;;;37.63;16.13;;;9.20;86.20;;;;;;4954418;28;21175;-77
2023/03/05 07:03:44;;;;;;;40.60;16.13;;;9.20;85.60;;;;;;4950804;28;20242;-76
2023/03/05 07:06:14;;;;;;;35.93;15.97;;;9.30;86.20;;;;;;4952312;28;20587;-77
2023/03/05 07:08:44;;;;;;;38.17;16.40;;;9.40;86.30;;;;;;4954296;28;20257;-76
2023/03/05 07:11:15;;;;;;;37.10;16.23;;;9.40;85.30;;;;;;4947874;28;20233;-77
2023/03/05 07:13:46;;;;;;;39.53;15.80;;;9.40;85.20;;;;;;4948419;28;20198;-77
2023/03/05 07:16:18;;;;;;;36.27;14.30;;;9.50;85.20;;;;;;4956457;28;20277;-77
2023/03/05 07:18:49;;;;;;;29.43;14.73;;;9.50;85.20;;;;;;4961258;28;20206;-76
2023/03/05 07:21:20;;;;;;;38.33;14.20;;;9.60;84.00;;;;;;4954996;28;20270;-77
2023/03/05 07:23:49;;;;;;;32.13;14.23;;;9.70;84.30;;;;;;4953118;28;20197;-76
2023/03/05 07:26:18;;;;;;;30.53;13.43;;;9.70;83.20;;;;;;4957868;28;20234;-76
2023/03/05 07:28:47;;;;;;;29.17;13.70;;;9.80;83.60;;;;;;4961402;28;20678;-75
2023/03/05 07:31:18;;;;;;;32.60;13.47;;;9.90;83.60;;;;;;4955035;28;20625;-76
2023/03/05 07:33:48;;;;;;;27.80;13.10;;;10.00;83.30;;;;;;4956896;28;20194;-75
2023/03/05 07:36:17;;;;;;;23.60;12.20;;;10.10;82.50;;;;;;4951138;28;20214;-76
2023/03/05 07:38:46;;;;;;;28.87;14.10;;;10.20;81.60;;;;;;4946445;28;20206;-76
2023/03/05 07:41:18;;;;;;;40.87;14.57;;;10.20;80.50;;;;;;4950920;28;20323;-76
2023/03/05 07:43:50;;;;;;;31.57;14.10;;;10.30;80.20;;;;;;4954380;28;20654;-76
2023/03/05 07:46:20;;;;;;;31.43;13.73;;;10.30;80.40;;;;;;4953913;28;20207;-76
2023/03/05 07:48:48;;;;;;;31.93;13.40;;;10.40;80.60;;;;;;4943768;28;20229;-77
2023/03/05 07:51:19;;;;;;;32.27;13.00;;;10.50;80.20;;;;;;4955295;28;20215;-75
2023/03/05 07:53:49;;;;;;;28.27;13.23;;;10.60;80.40;;;;;;4961906;28;20202;-78
2023/03/05 07:56:22;;;;;;;27.50;14.30;;;10.60;79.20;;;;;;4968705;28;20203;-76
2023/03/05 07:58:52;;;;;;;34.00;14.93;;;10.70;79.10;;;;;;4962458;28;20205;-78
2023/03/05 08:01:23;;;;;;;25.50;12.97;;;10.70;78.00;;;;;;4957041;28;20647;-77
2023/03/05 08:03:52;;;;;;;32.23;14.20;;;10.80;78.50;;;;;;4950339;28;20233;-76
2023/03/05 08:06:20;;;;;;;27.63;13.70;;;10.80;77.50;;;;;;4967150;28;20198;-76
2023/03/05 08:08:49;;;;;;;30.37;13.80;;;10.90;76.00;;;;;;4960818;28;20655;-76
2023/03/05 08:11:17;;;;;;;29.33;14.30;;;11.00;76.30;;;;;;4948154;28;20572;-77
2023/03/05 08:13:46;;;;;;;28.70;14.10;;;11.00;76.60;;;;;;4949116;28;20198;-76
2023/03/05 08:16:18;;;;;;;32.90;15.50;;;11.10;76.30;;;;;;4961286;28;20218;-77
2023/03/05 08:18:48;;;;;;;31.30;13.70;;;11.20;75.90;;;;;;4952195;28;20578;-79
2023/03/05 08:21:18;;;;;;;33.47;14.87;;;11.20;74.70;;;;;;4955562;28;20242;-77
2023/03/05 08:23:46;;;;;;;28.40;13.57;;;11.30;74.10;;;;;;4951957;28;20288;-78
2023/03/05 08:26:17;;;;;;;27.93;13.87;;;11.40;74.80;;;;;;4953855;28;20194;-77
2023/03/05 08:28:46;;;;;;;30.10;14.13;;;11.40;74.80;;;;;;4956414;28;20202;-76
2023/03/05 08:31:17;;;;;;;30.10;14.77;;;11.40;74.10;;;;;;4955984;28;20202;-77
2023/03/05 08:33:46;;;;;;;28.73;14.80;;;11.50;74.90;;;;;;4948240;28;20199;-78
2023/03/05 08:36:14;;;;;;;31.63;14.50;;;11.50;74.10;;;;;;4954698;28;20285;-77
2023/03/05 08:38:43;;;;;;;32.47;14.33;;;11.60;74.10;;;;;;4953118;28;20229;-77
2023/03/05 08:41:12;;;;;;;31.73;14.27;;;11.60;74.20;;;;;;4952557;28;20199;-77
2023/03/05 08:43:40;;;;;;;30.80;14.67;;;11.70;73.90;;;;;;4951702;28;20202;-77
2023/03/05 08:46:10;;;;;;;28.00;13.70;;;11.80;73.60;;;;;;4950951;28;20203;-77
2023/03/05 08:48:40;;;;;;;26.63;13.60;;;11.80;72.70;;;;;;4956923;28;20210;-77
2023/03/05 08:51:10;;;;;;;27.57;13.40;;;11.90;73.00;;;;;;4947445;28;22364;-77
2023/03/05 08:53:39;;;;;;;30.13;13.97;;;11.90;73.00;;;;;;4955307;28;20229;-76
2023/03/05 08:56:08;;;;;;;26.10;13.47;;;11.90;72.90;;;;;;4945117;28;20211;-76
2023/03/05 08:58:37;;;;;;;26.97;12.93;;;11.90;72.60;;;;;;4950241;28;20211;-76
2023/03/05 09:01:06;;;;;;;25.77;13.13;;;11.90;72.80;;;;;;4953987;28;20217;-76
2023/03/05 09:03:35;;;;;;;28.40;13.57;;;11.90;72.00;;;;;;4957685;28;20206;-76
2023/03/05 09:06:06;;;;;;;28.00;13.33;;;12.00;72.70;;;;;;4952247;28;20321;-76
2023/03/05 09:08:35;;;;;;;30.55;13.95;;;12.00;72.50;;;;;;4954334;28;20453;-77
2023/03/05 09:11:05;;;;;;;32.77;15.73;;;12.10;73.00;;;;;;4960998;28;20324;-76
2023/03/05 09:13:34;;;;;;;30.70;13.83;;;12.20;71.90;;;;;;4950809;28;20230;-75
2023/03/05 09:16:04;;;;;;;29.37;14.00;;;12.20;72.20;;;;;;4969534;28;20617;-76
2023/03/05 09:18:35;;;;;;;33.13;13.00;;;12.30;72.90;;;;;;4970303;28;20242;-76
2023/03/05 09:21:07;;;;;;;33.37;16.03;;;12.40;72.50;;;;;;4973952;28;20253;-76
2023/03/05 09:23:36;;;;;;;30.67;13.77;;;12.50;71.70;;;;;;4971124;28;20199;-76
2023/03/05 09:26:05;;;;;;;30.40;13.87;;;12.50;71.50;;;;;;4970871;28;20211;-76
2023/03/05 09:28:34;;;;;;;29.63;14.47;;;12.50;70.70;;;;;;4967442;28;20655;-76
2023/03/05 09:31:03;;;;;;;32.93;15.20;;;12.60;70.90;;;;;;4960610;28;20206;-75
2023/03/05 09:33:33;;;;;;;29.67;14.00;;;12.70;70.90;;;;;;4956014;28;20206;-76
2023/03/05 09:36:03;;;;;;;31.73;13.07;;;12.70;71.00;;;;;;4961827;28;20263;-76
2023/03/05 09:38:35;;;;;;;30.33;13.50;;;12.70;70.70;;;;;;4961451;28;20206;-75
2023/03/05 09:41:06;;;;;;;25.07;13.07;;;12.70;70.50;;;;;;4960872;28;20205;-75
2023/03/05 09:43:44;;;;;;;31.00;13.90;;;12.70;70.30;;;;;;4969290;28;20203;-74
2023/03/05 09:46:27;;;;;;;31.47;14.70;;;12.80;70.50;;;;;;4966011;28;21488;-75
2023/03/05 09:49:05;;;;;;;28.47;13.37;;;12.80;70.40;;;;;;4960703;28;20190;-76
2023/03/05 09:51:38;;;;;;;26.53;13.23;;;12.80;70.50;;;;;;4955806;28;20657;-74
2023/03/05 09:54:13;;;;;;;27.23;12.13;;;12.80;70.20;;;;;;4951415;28;20295;-75
2023/03/05 09:56:45;;;;;;;22.73;11.23;;;12.90;70.60;;;;;;4955581;28;20783;-75
2023/03/05 09:59:29;;;;;;;26.27;12.77;;;12.80;69.40;;;;;;4966987;28;20215;-75
2023/03/05 10:02:01;;;;;;;30.10;13.10;;;12.90;70.00;;;;;;4949460;28;20260;-75
2023/03/05 10:04:41;;;;;;;26.37;12.67;;;12.90;69.40;;;;;;4961969;28;20709;-75
2023/03/05 10:07:17;;;;;;;27.90;12.97;;;12.90;69.30;;;;;;4956527;28;20202;-76
2023/03/05 10:09:59;;;;;;;25.40;12.97;;;13.00;69.10;;;;;;4950745;28;20334;-76
2023/03/05 10:12:41;;;;;;;27.50;12.50;;;13.00;68.90;;;;;;4951682;28;20459;-75
2023/03/05 10:15:13;;;;;;;29.57;13.03;;;13.10;68.70;;;;;;4954392;28;20194;-75
2023/03/05 10:18:05;;;;;;;32.23;13.67;;;13.00;67.90;;;;;;4957675;28;20241;-76
2023/03/05 10:20:48;;;;;;;25.77;12.87;;;13.00;68.00;;;;;;4961785;28;20253;-78
2023/03/05 10:23:29;;;;;;;26.30;12.40;;;13.10;68.80;;;;;;4964814;28;20198;-77
2023/03/05 10:26:12;;;;;;;28.53;13.07;;;13.10;68.80;;;;;;4957581;28;20250;-78
2023/03/05 10:28:48;;;;;;;25.50;12.57;;;13.20;69.10;;;;;;4960978;28;20198;-76
2023/03/05 10:31:37;;;;;;;23.27;11.50;;;13.20;69.10;;;;;;4964312;28;20202;-75
2023/03/05 10:34:24;;;;;;;29.40;12.47;;;13.30;69.00;;;;;;4956377;28;20218;-75
2023/03/05 10:37:02;;;;;;;26.33;12.70;;;13.40;69.60;;;;;;4955426;29;20201;-75
2023/03/05 10:39:52;;;;;;;23.57;12.07;;;13.40;68.80;;;;;;4957467;28;20226;-75
2023/03/05 10:42:29;;;;;;;23.10;11.77;;;13.40;68.10;;;;;;4960092;28;20379;-77
2023/03/05 10:45:00;;;;;;;23.20;11.40;;;13.50;68.60;;;;;;4958152;28;20198;-77
2023/03/05 10:47:34;;;;;;;26.23;12.73;;;13.60;67.70;;;;;;4947577;28;20209;-77
2023/03/05 10:50:15;;;;;;;24.93;12.50;;;13.70;67.70;;;;;;4946873;28;20257;-79
2023/03/05 10:52:47;;;;;;;27.40;12.07;;;13.80;69.10;;;;;;4949195;28;20277;-76
2023/03/05 10:55:17;;;;;;;26.83;12.83;;;13.80;67.00;;;;;;4960262;28;20720;-79
2023/03/05 10:57:47;;;;;;;26.70;12.17;;;13.80;67.00;;;;;;4951806;28;20257;-78
2023/03/05 11:00:21;;;;;;;20.37;10.87;;;13.90;67.60;;;;;;4949083;28;20249;-79
2023/03/05 11:02:59;;;;;;;21.67;11.20;;;14.00;68.20;;;;;;4956836;28;20214;-78
2023/03/05 11:05:42;;;;;;;26.20;11.80;;;14.10;67.50;;;;;;4947881;28;20253;-78
2023/03/05 11:08:25;;;;;;;20.37;10.40;;;14.20;67.50;;;;;;4956458;28;20738;-79
2023/03/05 11:11:13;;;;;;;23.43;11.60;;;14.30;67.60;;;;;;4951007;28;20225;-79
2023/03/05 11:14:02;;;;;;;22.27;10.13;;;14.40;67.20;;;;;;4947448;28;20202;-79
2023/03/05 11:16:32;;;;;;;22.77;10.73;;;14.40;66.10;;;;;;4946472;28;21593;-79
2023/03/05 11:19:19;;;;;;;22.00;11.37;;;14.50;65.80;;;;;;4952420;28;20480;-80
2023/03/05 11:22:05;;;;;;;18.70;10.17;;;14.60;65.90;;;;;;4953475;28;20253;-79
2023/03/05 11:24:33;;;;;;;22.00;10.43;;;14.70;65.90;;;;;;4949641;28;20206;-78
2023/03/05 11:27:04;;;;;;;22.33;10.20;;;14.80;66.00;;;;;;4949864;28;20198;-76
2023/03/05 11:29:35;;;;;;;22.30;11.33;;;14.80;64.00;;;;;;4952782;28;20194;-77
2023/03/05 11:32:20;;;;;;;19.73;10.37;;;14.90;64.60;;;;;;4956843;28;20190;-77
2023/03/05 11:34:50;;;;;;;21.60;10.03;;;15.00;64.60;;;;;;4968893;28;20208;-77
2023/03/05 11:37:25;;;;;;;23.43;10.87;;;15.10;64.20;;;;;;4957290;28;20198;-76
2023/03/05 11:40:18;;;;;;;21.40;10.53;;;15.20;62.90;;;;;;4956318;28;20642;-76
2023/03/05 11:42:54;;;;;;;24.00;11.23;;;15.30;63.70;;;;;;4964643;28;20198;-76
2023/03/05 11:45:26;;;;;;;24.43;11.07;;;15.30;62.60;;;;;;4956243;28;20342;-77
2023/03/05 11:48:08;;;;;;;22.80;10.63;;;15.40;63.00;;;;;;4960204;28;20193;-77
2023/03/05 11:50:40;;;;;;;23.30;9.80;;;15.50;62.40;;;;;;4960025;28;20199;-76
2023/03/05 11:53:15;;;;;;;25.37;11.00;;;15.60;61.60;;;;;;4964022;28;20234;-74
2023/03/05 11:55:45;;;;;;;22.13;10.67;;;15.70;61.60;;;;;;4958272;28;20199;-76
2023/03/05 11:58:29;;;;;;;22.33;11.37;;;15.80;61.70;;;;;;4957705;28;20222;-76
2023/03/05 12:01:01;;;;;;;22.30;10.20;;;15.80;62.40;;;;;;4961905;28;20257;-75
2023/03/05 12:03:33;;;;;;;22.17;11.00;;;15.90;61.00;;;;;;4973697;28;20213;-77
2023/03/05 12:06:08;;;;;;;23.07;11.13;;;16.00;60.90;;;;;;4971198;28;20557;-76
2023/03/05 12:08:41;;;;;;;27.63;11.53;;;16.10;61.10;;;;;;4962483;28;20579;-78
2023/03/05 12:11:17;;;;;;;19.57;10.93;;;16.20;60.80;;;;;;4956109;28;20234;-77
2023/03/05 12:13:48;;;;;;;20.87;11.27;;;16.30;61.20;;;;;;4949966;28;20202;-78
2023/03/05 12:16:26;;;;;;;22.67;12.43;;;16.40;60.80;;;;;;4963195;28;20199;-78
2023/03/05 12:19:04;;;;;;;22.57;11.63;;;16.50;60.50;;;;;;4951373;28;20663;-77
2023/03/05 12:21:36;;;;;;;24.17;11.43;;;16.50;60.30;;;;;;4953960;28;20206;-76
2023/03/05 12:24:39;;;;;;;22.67;12.00;;;16.70;60.30;;;;;;4962396;28;20222;-76
2023/03/05 12:27:22;;;;;;;22.90;12.07;;;16.70;58.90;;;;;;4966177;28;20757;-76
2023/03/05 12:29:51;;;;;;;20.73;11.77;;;16.80;58.90;;;;;;4949995;29;20260;-75
2023/03/05 12:33:01;;;;;;;19.07;9.97;;;16.80;58.50;;;;;;4965054;28;20202;-77
2023/03/05 12:35:40;;;;;;;21.87;11.23;;;17.00;58.70;;;;;;4963788;28;20201;-76
2023/03/05 12:38:30;;;;;;;18.13;10.03;;;17.10;58.00;;;;;;4964511;28;20246;-77
2023/03/05 12:41:34;;;;;;;21.33;11.03;;;17.30;58.10;;;;;;4974183;28;20210;-77
2023/03/05 12:44:22;;;;;;;20.33;12.20;;;17.40;57.70;;;;;;4951053;28;20225;-77
2023/03/05 12:47:22;;;;;;;22.67;11.70;;;17.60;58.00;;;;;;4968342;28;20198;-76
2023/03/05 12:49:52;;;;;;;24.10;11.90;;;17.70;58.20;;;;;;4896511;29;20229;-75
2023/03/05 12:52:28;;;;;;;19.77;11.40;;;17.80;58.30;;;;;;4950877;28;20651;-76
2023/03/05 12:55:22;;;;;;;25.67;11.37;;;17.90;57.80;;;;;;4957936;28;20194;-78
2023/03/05 12:57:57;;;;;;;22.10;12.40;;;18.10;58.60;;;;;;4950335;28;20194;-78